Flight Track Log - Related Links

Times and Time Zones

All times are in EDT time to prevent confusion due to time zone crossing. See the SLI2051 flight status page for this flight to view local times or setup timezone preferences in your user account.

Time Position Orientation Groundspeed Altitude Reporting Facility
EDT Latitude Longitude Course Direction KTS MPH feet Rate Location/Type
Mon 08:18:15 AM 25.7880 -100.1339 291° West  Level Estimated
Mon 08:19:15 AM 25.8260 -100.2422 291° West  Level Estimated
Mon 08:20:15 AM 25.8639 -100.3505 291° West  Level Estimated
Mon 08:21:15 AM 25.9017 -100.4589 291° West  Level Estimated
Mon 08:22:15 AM 25.9395 -100.5674 291° West  Level Estimated
Mon 08:23:15 AM 25.9771 -100.6759 291° West  Level Estimated
Mon 08:24:15 AM 26.0147 -100.7845 291° West  Level Estimated
Mon 08:25:15 AM 26.0522 -100.8931 291° West  Level Estimated
Mon 08:26:15 AM 26.0897 -101.0019 291° West  Level Estimated
Mon 08:27:15 AM 26.1270 -101.1107 291° West  Level Estimated
Mon 08:28:15 AM 26.1643 -101.2196 291° West  Level Estimated
Mon 08:29:15 AM 26.2015 -101.3285 291° West  Level Estimated
Mon 08:30:15 AM 26.2386 -101.4375 291° West  Level Estimated
Mon 08:31:15 AM 26.2756 -101.5466 291° West  Level Estimated
Mon 08:32:15 AM 26.3125 -101.6557 291° West  Level Estimated
Mon 08:33:15 AM 26.3494 -101.7650 291° West  Level Estimated
Mon 08:34:15 AM 26.3862 -101.8743 291° West  Level Estimated
Mon 08:35:15 AM 26.4228 -101.9836 291° West  Level Estimated
Mon 08:36:15 AM 26.4594 -102.0930 290° West  Level Estimated
Mon 08:37:15 AM 26.4960 -102.2025 290° West  Level Estimated
Mon 08:38:15 AM 26.5324 -102.3121 290° West  Level Estimated
Mon 08:39:15 AM 26.5688 -102.4218 290° West  Level Estimated
Mon 08:40:15 AM 26.6050 -102.5315 290° West  Level Estimated
Mon 08:41:15 AM 26.6412 -102.6412 290° West  Level Estimated
Mon 08:42:15 AM 26.6773 -102.7511 290° West  Level Estimated
Mon 08:43:15 AM 26.7133 -102.8610 290° West  Level Estimated
Mon 08:44:15 AM 26.7492 -102.9710 290° West  Level Estimated
Mon 08:45:15 AM 26.7851 -103.0810 290° West  Level Estimated
Mon 08:46:15 AM 26.8209 -103.1912 290° West  Level Estimated
Mon 08:47:15 AM 26.8565 -103.3014 290° West  Level Estimated
Mon 08:48:15 AM 26.8921 -103.4116 290° West  Level Estimated
Mon 08:49:15 AM 26.9276 -103.5220 290° West  Level Estimated
Mon 08:50:15 AM 26.9630 -103.6324 290° West  Level Estimated
Mon 08:51:15 AM 26.9984 -103.7428 290° West  Level Estimated
Mon 08:52:15 AM 27.0336 -103.8534 290° West  Level Estimated
Mon 08:53:15 AM 27.0688 -103.9640 290° West  Level Estimated
Mon 08:54:15 AM 27.1038 -104.0747 290° West  Level Estimated
Mon 08:55:15 AM 27.1388 -104.1854 290° West  Level Estimated
Mon 08:56:15 AM 27.1737 -104.2962 289° West  Level Estimated
Mon 08:57:15 AM 27.2085 -104.4071 289° West  Level Estimated
Mon 08:58:15 AM 27.2433 -104.5181 289° West  Level Estimated
Mon 08:59:15 AM 27.2779 -104.6291 289° West  Level Estimated
Mon 09:00:15 AM 27.3125 -104.7402 289° West  Level Estimated
Mon 09:01:15 AM 27.3469 -104.8514 289° West  Level Estimated
Mon 09:02:15 AM 27.3813 -104.9626 289° West  Level Estimated
Mon 09:03:15 AM 27.4156 -105.0739 289° West  Level Estimated
Mon 09:04:15 AM 27.4498 -105.1853 289° West  Level Estimated
Mon 09:05:15 AM 27.4839 -105.2967 289° West  Level Estimated
Mon 09:06:15 AM 27.5179 -105.4082 289° West  Level Estimated
Mon 09:07:15 AM 27.5518 -105.5198 289° West  Level Estimated
Mon 09:08:15 AM 27.5857 -105.6315 289° West  Level Estimated
Mon 09:09:15 AM 27.6194 -105.7432 289° West  Level Estimated
Mon 09:10:15 AM 27.6531 -105.8550 289° West  Level Estimated
Mon 09:11:15 AM 27.6867 -105.9668 289° West  Level Estimated
Mon 09:12:15 AM 27.7201 -106.0788 289° West  Level Estimated
Mon 09:13:15 AM 27.7535 -106.1907 289° West  Level Estimated
Mon 09:14:15 AM 27.7868 -106.3028 289° West  Level Estimated
Mon 09:15:15 AM 27.8200 -106.4149 288° West  Level Estimated
Mon 09:16:15 AM 27.8532 -106.5271 288° West  Level Estimated
Mon 09:17:15 AM 27.8862 -106.6394 288° West  Level Estimated
Mon 09:18:15 AM 27.9191 -106.7517 288° West  Level Estimated
Mon 09:19:15 AM 27.9520 -106.8641 288° West  Level Estimated
Mon 09:20:15 AM 27.9847 -106.9766 288° West  Level Estimated
Mon 09:21:15 AM 28.0174 -107.0891 288° West  Level Estimated
Mon 09:22:15 AM 28.0500 -107.2018 288° West  Level Estimated
Mon 09:23:15 AM 28.0825 -107.3144 288° West  Level Estimated
Mon 09:24:15 AM 28.1148 -107.4272 288° West  Level Estimated
Mon 09:25:15 AM 28.1471 -107.5400 288° West  Level Estimated
Mon 09:26:15 AM 28.1793 -107.6529 288° West  Level Estimated
Mon 09:27:15 AM 28.2115 -107.7658 288° West  Level Estimated
Mon 09:28:15 AM 28.2435 -107.8788 288° West  Level Estimated
Mon 09:29:15 AM 28.2754 -107.9919 288° West  Level Estimated
Mon 09:30:15 AM 28.3072 -108.1051 288° West  Level Estimated
Mon 09:31:15 AM 28.3390 -108.2183 288° West  Level Estimated
Mon 09:32:15 AM 28.3706 -108.3316 288° West  Level Estimated
Mon 09:33:15 AM 28.4022 -108.4449 288° West  Level Estimated
Mon 09:34:15 AM 28.4336 -108.5583 287° West  Level Estimated
Mon 09:35:15 AM 28.4650 -108.6718 287° West  Level Estimated
Mon 09:36:15 AM 28.4963 -108.7854 287° West  Level Estimated
Mon 09:37:15 AM 28.5275 -108.8990 287° West  Level Estimated
Mon 09:38:15 AM 28.5585 -109.0127 287° West  Level Estimated
Mon 09:39:15 AM 28.5895 -109.1264 287° West  Level Estimated
Mon 09:40:15 AM 28.6204 -109.2403 287° West  Level Estimated
Mon 09:41:15 AM 28.6512 -109.3542 287° West  Level Estimated
Mon 09:42:15 AM 28.6819 -109.4681 287° West  Level Estimated
Mon 09:43:15 AM 28.7125 -109.5821 287° West  Level Estimated
Mon 09:44:15 AM 28.7430 -109.6962 287° West  Level Estimated
Mon 09:45:15 AM 28.7735 -109.8104 287° West  Level Estimated
Mon 09:46:15 AM 28.8038 -109.9246 287° West  Level Estimated
Mon 09:47:15 AM 28.8340 -110.0389 287° West  Level Estimated
Mon 09:48:15 AM 28.8641 -110.1532 287° West  Level Estimated
Mon 09:49:15 AM 28.8941 -110.2677 287° West  Level Estimated
Mon 09:50:15 AM 28.9241 -110.3821 287° West  Level Estimated
Mon 09:51:15 AM 28.9539 -110.4967 287° West  Level Estimated
Mon 09:52:15 AM 28.9837 -110.6113 286° West  Level Estimated
Mon 09:53:15 AM 29.0133 -110.7260 286° West  Level Estimated
Mon 09:54:15 AM 29.0428 -110.8408 286° West  Level Estimated
Mon 09:55:15 AM 29.0723 -110.9556 286° West  Level Estimated
Mon 09:56:15 AM 29.1016 -111.0705 106° East  Level Estimated
Mon 09:57:15 AM 29.0723 -110.9556 286° West  Level Estimated
Mon 09:58:15 AM 29.1016 -111.0705 106° East  Level Estimated
Mon 09:59:15 AM 29.0723 -110.9556 286° West  Level Estimated
Mon 10:00:15 AM 29.1016 -111.0705 106° East  Level Estimated
Mon 10:01:15 AM 29.0723 -110.9556 286° West  Level Estimated
Mon 10:02:15 AM 29.1016 -111.0705 106° East  Level Estimated
Mon 10:03:15 AM 29.0723 -110.9556 286° West  Level Estimated
Mon 10:04:15 AM 29.1016 -111.0705 106° East  Level Estimated
Mon 10:05:15 AM 29.0723 -110.9556 286° West  Level Estimated
Mon 10:06:15 AM 29.1016 -111.0705 106° East  Level Estimated
Mon 10:07:15 AM 29.0723 -110.9556 286° West  Level Estimated
Mon 10:08:15 AM 29.1016 -111.0705 106° East  Level Estimated
Mon 10:09:15 AM 29.0723 -110.9556 286° West  Level Estimated
Mon 10:10:15 AM 29.1016 -111.0705 106° East  Level Estimated
Mon 10:11:15 AM 29.0723 -110.9556 106° East  Level Estimated

Login

Don't have an account? Register now (free) for customized features, flight alerts, and more!